createdAt,value
2022-11-25T00:01:57.712Z,0.90
2022-11-25T00:07:03.368Z,0.90
2022-11-25T00:12:08.692Z,0.90
2022-11-25T00:17:13.913Z,0.90
2022-11-25T00:22:19.242Z,0.90
2022-11-25T00:27:24.542Z,0.90
2022-11-25T00:32:30.302Z,0.90
2022-11-25T00:37:35.601Z,0.90
2022-11-25T00:42:58.970Z,0.90
2022-11-25T00:48:04.316Z,0.90
2022-11-25T00:53:09.619Z,0.90
2022-11-25T00:58:14.909Z,1.00
2022-11-25T01:03:20.231Z,1.00
2022-11-25T01:08:25.436Z,1.00
2022-11-25T01:13:31.157Z,1.00
2022-11-25T01:18:36.752Z,1.00
2022-11-25T01:23:43.753Z,1.00
2022-11-25T01:28:50.047Z,1.10
2022-11-25T01:33:58.312Z,1.10
2022-11-25T01:39:04.411Z,1.10
2022-11-25T01:44:15.779Z,1.10
2022-11-25T01:49:27.103Z,1.10
2022-11-25T01:54:36.114Z,1.10
2022-11-25T01:59:44.632Z,1.10
2022-11-25T02:04:50.526Z,1.10
2022-11-25T02:09:57.594Z,1.10
2022-11-25T02:15:02.875Z,1.10
2022-11-25T02:20:13.862Z,1.10
2022-11-25T02:25:21.818Z,1.10
2022-11-25T02:30:27.154Z,1.10
2022-11-25T02:35:43.064Z,1.10
2022-11-25T02:40:59.950Z,1.10
2022-11-25T02:46:11.106Z,1.00
2022-11-25T02:51:18.722Z,1.00
2022-11-25T02:56:27.539Z,1.00
2022-11-25T03:01:35.477Z,1.00
2022-11-25T03:06:41.257Z,1.00
2022-11-25T03:12:04.223Z,1.00
2022-11-25T03:17:09.553Z,1.00
2022-11-25T03:22:14.940Z,1.00
2022-11-25T03:27:20.163Z,1.10
2022-11-25T03:32:26.264Z,1.00
2022-11-25T03:37:31.656Z,1.00
2022-11-25T03:42:37.494Z,1.00
2022-11-25T03:47:43.942Z,1.00
2022-11-25T03:52:49.356Z,1.00
2022-11-25T03:57:55.166Z,1.00
2022-11-25T04:03:00.514Z,1.00
2022-11-25T04:08:06.352Z,1.00
2022-11-25T04:13:11.819Z,1.10
2022-11-25T04:18:19.417Z,1.00
2022-11-25T04:23:25.529Z,1.00
2022-11-25T04:28:30.817Z,1.00
2022-11-25T04:33:37.072Z,1.00
2022-11-25T04:38:42.472Z,1.00
2022-11-25T04:43:47.833Z,1.00
2022-11-25T04:48:53.710Z,1.00
2022-11-25T04:53:59.390Z,1.00
2022-11-25T04:59:23.420Z,1.00
2022-11-25T05:04:29.139Z,1.00
2022-11-25T05:09:34.604Z,1.00
2022-11-25T05:14:39.981Z,1.00
2022-11-25T05:19:46.399Z,1.00
2022-11-25T05:24:51.774Z,1.00
2022-11-25T05:29:57.125Z,1.00
2022-11-25T05:35:02.611Z,1.00
2022-11-25T05:40:08.680Z,1.00
2022-11-25T05:45:13.852Z,1.00
2022-11-25T05:50:19.184Z,1.00
2022-11-25T05:55:26.917Z,1.00
2022-11-25T06:00:32.187Z,1.00
2022-11-25T06:05:37.510Z,1.00
2022-11-25T06:10:42.914Z,1.00
2022-11-25T06:15:48.714Z,1.00
2022-11-25T06:21:00.383Z,0.90
2022-11-25T06:26:23.356Z,0.90
2022-11-25T06:31:28.778Z,0.90
2022-11-25T06:36:34.183Z,0.90
2022-11-25T06:41:39.427Z,0.90
2022-11-25T06:46:45.203Z,0.90
2022-11-25T06:51:52.013Z,0.90
2022-11-25T06:57:04.550Z,1.00
2022-11-25T07:02:13.371Z,0.90
2022-11-25T07:07:19.366Z,0.90
2022-11-25T07:12:24.824Z,0.90
2022-11-25T07:17:31.571Z,0.90
2022-11-25T07:22:37.008Z,0.90
2022-11-25T07:27:42.436Z,1.00
2022-11-25T07:32:47.877Z,1.00
2022-11-25T07:37:53.337Z,1.00
2022-11-25T07:42:58.837Z,1.10
2022-11-25T07:48:04.164Z,1.10
2022-11-25T07:53:09.514Z,1.10
2022-11-25T07:58:14.776Z,1.20
2022-11-25T08:03:20.959Z,1.20
2022-11-25T08:08:26.531Z,1.20
2022-11-25T08:13:32.846Z,1.20
2022-11-25T08:18:38.273Z,1.20
2022-11-25T08:23:46.820Z,1.20
2022-11-25T08:28:52.261Z,1.20
2022-11-25T08:33:59.235Z,1.30
2022-11-25T08:39:28.864Z,1.30
2022-11-25T08:44:14.525Z,1.30
2022-11-25T08:49:19.984Z,1.40
2022-11-25T08:54:25.438Z,1.40
2022-11-25T08:59:30.801Z,1.40
2022-11-25T09:04:36.843Z,1.50
2022-11-25T09:09:42.229Z,1.60
2022-11-25T09:14:47.532Z,1.50
2022-11-25T09:19:52.840Z,1.50
2022-11-25T09:24:58.733Z,1.50
2022-11-25T09:30:04.244Z,1.50
2022-11-25T09:35:09.602Z,1.50
2022-11-25T09:40:23.917Z,1.50
2022-11-25T09:46:08.197Z,1.50
2022-11-25T09:51:26.150Z,1.60
2022-11-25T09:56:34.591Z,1.60
2022-11-25T10:01:51.777Z,1.50
2022-11-25T10:07:01.445Z,1.60
2022-11-25T10:12:15.401Z,1.60
2022-11-25T10:17:45.336Z,1.50
2022-11-25T10:22:56.162Z,1.60
2022-11-25T10:28:04.082Z,1.60
2022-11-25T10:33:17.841Z,1.60
2022-11-25T10:38:26.151Z,1.60
2022-11-25T10:43:33.404Z,1.60
2022-11-25T10:48:58.360Z,1.60
2022-11-25T10:54:26.857Z,1.70
2022-11-25T10:59:29.925Z,1.70
2022-11-25T11:04:35.927Z,1.70
2022-11-25T11:09:42.426Z,1.70
2022-11-25T11:14:48.134Z,1.70
2022-11-25T11:20:11.052Z,1.70
2022-11-25T11:25:25.236Z,1.70
2022-11-25T11:30:33.535Z,1.70
2022-11-25T11:36:17.020Z,1.70
2022-11-25T11:41:37.396Z,1.70
2022-11-25T11:46:46.080Z,1.80
2022-11-25T11:52:12.188Z,1.80
2022-11-25T11:57:37.097Z,1.70
2022-11-25T12:03:02.863Z,1.70
2022-11-25T12:08:19.862Z,1.70
2022-11-25T12:13:28.160Z,1.80
2022-11-25T12:18:59.985Z,1.80
2022-11-25T12:24:32.402Z,1.80
2022-11-25T12:29:47.064Z,1.80
2022-11-25T12:35:01.379Z,1.80
2022-11-25T12:40:12.728Z,1.90
2022-11-25T12:45:23.928Z,1.90
2022-11-25T12:50:53.532Z,1.80
2022-11-25T12:56:01.218Z,1.80
2022-11-25T13:01:27.621Z,1.80
2022-11-25T13:06:47.819Z,1.80
2022-11-25T13:11:56.411Z,1.80
2022-11-25T13:17:02.678Z,1.90
2022-11-25T13:22:25.063Z,1.90
2022-11-25T13:27:37.718Z,2.00
2022-11-25T13:32:43.124Z,2.00
2022-11-25T13:37:49.179Z,1.90
2022-11-25T13:42:55.729Z,1.90
2022-11-25T13:48:25.374Z,1.80
2022-11-25T13:53:36.394Z,1.70
2022-11-25T13:58:43.180Z,1.60
2022-11-25T14:03:50.849Z,1.70
2022-11-25T14:09:16.929Z,1.70
2022-11-25T14:14:49.228Z,1.70
2022-11-25T14:20:16.089Z,1.60
2022-11-25T14:25:25.914Z,1.50
2022-11-25T14:30:31.836Z,1.40
2022-11-25T14:35:49.410Z,1.40
2022-11-25T14:41:03.572Z,1.40
2022-11-25T14:46:26.672Z,1.40
2022-11-25T14:51:53.656Z,1.40
2022-11-25T14:57:04.771Z,1.40
2022-11-25T15:02:28.946Z,1.40
2022-11-25T15:07:43.605Z,1.30
2022-11-25T15:12:53.642Z,1.30
2022-11-25T15:29:24.210Z,1.30
2022-11-25T15:34:31.119Z,1.20
2022-11-25T15:39:40.767Z,1.20
2022-11-25T15:45:06.989Z,1.20
2022-11-25T15:50:27.250Z,1.10
2022-11-25T15:55:39.385Z,1.10
2022-11-25T16:01:02.475Z,1.10
2022-11-25T16:06:25.949Z,1.00
2022-11-25T16:11:36.322Z,1.00
2022-11-25T16:16:41.766Z,1.00
2022-11-25T16:21:50.061Z,1.00
2022-11-25T16:27:09.851Z,0.90
2022-11-25T16:32:32.236Z,0.90
2022-11-25T16:37:42.715Z,0.90
2022-11-25T16:42:51.880Z,0.80
2022-11-25T16:47:57.342Z,0.80
2022-11-25T16:53:17.130Z,0.80
2022-11-25T17:04:21.124Z,0.80
2022-11-25T17:09:29.677Z,0.80
2022-11-25T17:14:39.224Z,0.80
2022-11-25T17:19:57.569Z,0.80
2022-11-25T17:25:13.405Z,0.70
2022-11-25T17:30:22.069Z,0.70
2022-11-25T17:35:27.562Z,0.70
2022-11-25T17:40:33.227Z,0.70
2022-11-25T17:45:38.704Z,0.70
2022-11-25T17:50:46.002Z,0.70
2022-11-25T17:55:52.977Z,0.70
2022-11-25T18:00:58.223Z,0.60
2022-11-25T18:06:04.831Z,0.70
2022-11-25T18:11:13.137Z,0.70
2022-11-25T18:16:20.821Z,0.70
2022-11-25T18:21:26.786Z,0.70
2022-11-25T18:26:34.756Z,0.70
2022-11-25T18:31:45.386Z,0.70
2022-11-25T18:36:51.796Z,0.70
2022-11-25T18:41:58.808Z,0.70
2022-11-25T18:47:12.513Z,0.70
2022-11-25T18:52:24.962Z,0.60
2022-11-25T18:57:30.937Z,0.50
2022-11-25T19:02:36.787Z,0.50
2022-11-25T19:07:42.527Z,0.50
2022-11-25T19:12:51.337Z,0.50
2022-11-25T19:18:02.474Z,0.50
2022-11-25T19:23:16.819Z,0.40
2022-11-25T19:28:23.302Z,0.50
2022-11-25T19:33:37.238Z,0.40
2022-11-25T19:38:42.704Z,0.50
2022-11-25T19:43:48.394Z,0.40
2022-11-25T19:48:56.277Z,0.40
2022-11-25T19:54:01.505Z,0.40
2022-11-25T19:59:08.103Z,0.40
2022-11-25T20:04:16.426Z,0.30
2022-11-25T20:09:27.380Z,0.30
2022-11-25T20:14:35.155Z,0.20
2022-11-25T20:19:43.061Z,0.10
2022-11-25T20:24:48.835Z,0.10
2022-11-25T20:29:55.046Z,0.00
2022-11-25T20:35:00.876Z,-0.10
2022-11-25T20:40:09.070Z,-0.10
2022-11-25T20:45:20.856Z,-0.20
2022-11-25T20:50:26.279Z,-0.20
2022-11-25T20:55:31.631Z,-0.20
2022-11-25T21:00:38.353Z,-0.20
2022-11-25T21:05:47.243Z,-0.30
2022-11-25T21:10:57.794Z,-0.30
2022-11-25T21:16:03.112Z,-0.40
2022-11-25T21:21:17.339Z,-0.40
2022-11-25T21:26:25.783Z,-0.50
2022-11-25T21:31:32.036Z,-0.50
2022-11-25T21:36:38.463Z,-0.50
2022-11-25T21:41:43.874Z,-0.50
2022-11-25T21:46:49.060Z,-0.60
2022-11-25T21:51:55.882Z,-0.70
2022-11-25T21:57:01.189Z,-0.80
2022-11-25T22:02:18.161Z,-0.90
2022-11-25T22:07:30.766Z,-0.90
2022-11-25T22:12:40.892Z,-0.90
2022-11-25T22:17:41.629Z,-1.00
2022-11-25T22:22:46.965Z,-1.10
2022-11-25T22:27:52.458Z,-1.20
2022-11-25T22:33:02.618Z,-1.30
2022-11-25T22:38:19.138Z,-1.40
2022-11-25T22:43:27.368Z,-1.40
2022-11-25T22:48:38.309Z,-1.40
2022-11-25T22:53:43.614Z,-1.50
2022-11-25T22:58:49.102Z,-1.60
2022-11-25T23:03:54.313Z,-1.60
2022-11-25T23:08:59.602Z,-1.60
2022-11-25T23:14:04.734Z,-1.60
2022-11-25T23:19:17.610Z,-1.60
2022-11-25T23:24:22.862Z,-1.70
2022-11-25T23:29:28.097Z,-1.70
2022-11-25T23:34:33.713Z,-1.80
2022-11-25T23:39:39.520Z,-1.80
2022-11-25T23:44:44.794Z,-1.80
2022-11-25T23:49:53.062Z,-1.80
2022-11-25T23:54:58.710Z,-1.80
